createdAt,value
2022-10-17T00:00:16.995Z,52.70
2022-10-17T00:05:19.098Z,53.05
2022-10-17T00:10:22.335Z,52.66
2022-10-17T00:15:26.877Z,53.07
2022-10-17T00:20:30.524Z,55.26
2022-10-17T00:25:32.665Z,55.27
2022-10-17T00:30:34.697Z,54.10
2022-10-17T00:35:37.349Z,54.49
2022-10-17T00:40:39.586Z,53.86
2022-10-17T00:45:42.315Z,52.92
2022-10-17T00:50:48.960Z,53.12
2022-10-17T00:55:53.208Z,53.20
2022-10-17T01:00:55.199Z,52.10
2022-10-17T01:05:57.457Z,52.15
2022-10-17T01:11:11.996Z,52.54
2022-10-17T01:16:34.698Z,51.63
2022-10-17T01:21:50.740Z,50.91
2022-10-17T01:27:33.901Z,50.92
2022-10-17T01:32:45.358Z,50.79
2022-10-17T01:38:11.753Z,50.86
2022-10-17T01:43:17.016Z,51.12
2022-10-17T01:48:23.856Z,52.01
2022-10-17T01:53:32.001Z,52.20
2022-10-17T01:58:38.397Z,54.13
2022-10-17T02:03:43.655Z,51.86
2022-10-17T02:08:48.611Z,52.83
2022-10-17T02:14:03.190Z,53.08
2022-10-17T02:19:33.641Z,53.39
2022-10-17T02:24:48.438Z,53.77
2022-10-17T02:30:01.180Z,54.40
2022-10-17T02:35:07.478Z,53.62
2022-10-17T02:40:11.280Z,54.76
2022-10-17T02:45:15.884Z,54.13
2022-10-17T02:50:20.061Z,53.65
2022-10-17T02:55:28.504Z,53.94
2022-10-17T03:00:33.383Z,53.94
2022-10-17T03:05:36.021Z,53.97
2022-10-17T03:10:37.987Z,51.74
2022-10-17T03:15:41.095Z,50.14
2022-10-17T03:20:43.793Z,49.76
2022-10-17T03:25:45.894Z,50.86
2022-10-17T03:30:49.628Z,49.72
2022-10-17T03:35:51.673Z,49.00
2022-10-17T03:40:57.110Z,49.42
2022-10-17T03:46:00.749Z,51.37
2022-10-17T03:51:09.215Z,51.94
2022-10-17T03:56:22.062Z,52.11
2022-10-17T04:01:35.342Z,52.11
2022-10-17T04:06:38.300Z,52.09
2022-10-17T04:11:40.647Z,52.74
2022-10-17T04:16:42.977Z,52.46
2022-10-17T04:21:52.602Z,53.46
2022-10-17T04:26:55.808Z,53.57
2022-10-17T04:32:00.668Z,53.61
2022-10-17T04:37:10.933Z,53.81
2022-10-17T04:42:13.316Z,54.06
2022-10-17T04:47:16.263Z,55.05
2022-10-17T04:52:19.033Z,54.87
2022-10-17T04:57:24.918Z,54.48
2022-10-17T05:02:34.753Z,54.07
2022-10-17T05:07:41.587Z,54.39
2022-10-17T05:12:49.601Z,53.49
2022-10-17T05:18:04.163Z,53.35
2022-10-17T05:23:07.981Z,55.55
2022-10-17T05:28:14.808Z,54.62
2022-10-17T05:33:19.371Z,54.17
2022-10-17T05:38:21.680Z,53.87
2022-10-17T05:43:25.147Z,53.31
2022-10-17T05:48:28.325Z,53.94
2022-10-17T05:53:32.965Z,54.38
2022-10-17T05:58:50.308Z,54.47
2022-10-17T06:04:17.381Z,53.94
2022-10-17T06:09:19.501Z,53.67
2022-10-17T06:14:24.565Z,52.70
2022-10-17T06:19:30.790Z,51.79
2022-10-17T06:24:32.968Z,51.10
2022-10-17T06:29:39.048Z,49.60
2022-10-17T06:34:41.488Z,48.22
2022-10-17T06:39:44.385Z,47.99
2022-10-17T06:44:53.449Z,48.47
2022-10-17T06:50:12.006Z,47.16
2022-10-17T06:55:22.651Z,47.42
2022-10-17T07:00:48.481Z,47.49
2022-10-17T07:05:56.913Z,48.02
2022-10-17T07:11:09.316Z,46.15
2022-10-17T07:16:12.467Z,45.88
2022-10-17T07:21:15.904Z,45.35
2022-10-17T07:26:19.694Z,44.29
2022-10-17T07:31:24.086Z,43.19
2022-10-17T07:36:26.922Z,43.14
2022-10-17T07:41:30.493Z,41.26
2022-10-17T07:46:39.030Z,39.58
2022-10-17T07:51:41.974Z,38.45
2022-10-17T07:56:44.116Z,36.92
2022-10-17T08:01:46.404Z,34.95
2022-10-17T08:06:50.827Z,33.55
2022-10-17T08:11:55.368Z,32.63
2022-10-17T08:16:57.537Z,30.36
2022-10-17T08:21:59.600Z,26.35
2022-10-17T08:27:01.714Z,26.88
2022-10-17T08:32:06.509Z,23.79
2022-10-17T08:42:13.107Z,20.76
2022-10-17T08:47:20.927Z,20.20
2022-10-17T08:52:45.109Z,18.09
2022-10-17T08:57:48.174Z,19.57
2022-10-17T09:03:14.724Z,18.79
2022-10-17T09:08:53.132Z,18.67
2022-10-17T09:14:13.337Z,19.47
2022-10-17T09:19:30.429Z,17.01
2022-10-17T09:24:51.137Z,16.88
2022-10-17T09:30:21.508Z,16.20
2022-10-17T09:35:38.377Z,15.60
2022-10-17T09:40:40.821Z,15.29
2022-10-17T09:46:00.337Z,12.05
2022-10-17T09:51:21.719Z,12.59
2022-10-17T09:56:24.314Z,13.95
2022-10-17T10:01:30.759Z,13.49
2022-10-17T10:06:32.822Z,12.20
2022-10-17T10:11:49.940Z,13.35
2022-10-17T10:16:53.759Z,10.66
2022-10-17T10:21:58.437Z,11.15
2022-10-17T10:27:04.247Z,10.90
2022-10-17T10:32:17.349Z,10.98
2022-10-17T10:37:27.446Z,10.58
2022-10-17T10:42:33.030Z,8.97
2022-10-17T10:47:35.644Z,8.82
2022-10-17T10:52:47.837Z,8.24
2022-10-17T10:57:53.120Z,6.01
2022-10-17T11:03:13.689Z,7.16
2022-10-17T11:08:43.275Z,6.69
2022-10-17T11:13:54.932Z,5.15
2022-10-17T11:19:16.687Z,2.51
2022-10-17T11:24:25.434Z,0.63
2022-10-17T11:29:36.303Z,-2.08
2022-10-17T11:34:46.608Z,-3.24
2022-10-17T11:39:56.412Z,-4.44
2022-10-17T11:45:20.652Z,-4.37
2022-10-17T11:56:03.113Z,-5.46
2022-10-17T12:01:31.917Z,118.27
2022-10-17T12:06:48.753Z,118.20
2022-10-17T12:11:54.310Z,117.67
2022-10-17T12:16:56.290Z,117.84
2022-10-17T12:22:19.044Z,118.38
2022-10-17T12:27:33.362Z,117.38
2022-10-17T12:32:53.340Z,116.47
2022-10-17T12:38:16.680Z,116.45
2022-10-17T12:43:18.624Z,116.38
2022-10-17T12:48:39.062Z,116.51
2022-10-17T12:53:47.472Z,116.17
2022-10-17T12:58:51.750Z,116.95
2022-10-17T13:03:56.035Z,116.90
2022-10-17T13:09:05.573Z,117.54
2022-10-17T13:14:16.429Z,117.61
2022-10-17T13:19:23.573Z,118.40
2022-10-17T13:24:30.493Z,116.91
2022-10-17T13:29:32.991Z,116.72
2022-10-17T13:34:35.801Z,116.24
2022-10-17T13:39:55.223Z,115.09
2022-10-17T13:44:59.112Z,115.33
2022-10-17T13:50:01.202Z,116.22
2022-10-17T13:55:17.552Z,116.20
2022-10-17T14:00:23.011Z,116.98
2022-10-17T14:05:25.605Z,116.29
2022-10-17T14:10:37.460Z,116.76
2022-10-17T14:15:45.864Z,117.03
2022-10-17T14:26:21.136Z,117.48
2022-10-17T14:31:32.217Z,118.23
2022-10-17T14:36:38.393Z,118.39
2022-10-17T14:41:47.713Z,-5.20
2022-10-17T14:46:57.962Z,-4.11
2022-10-17T14:52:17.993Z,-3.42
2022-10-17T14:57:35.113Z,-3.07
2022-10-17T15:02:37.330Z,-2.29
2022-10-17T15:07:39.552Z,-1.08
2022-10-17T15:12:51.064Z,0.95
2022-10-17T15:18:00.970Z,2.62
2022-10-17T15:23:03.989Z,4.19
2022-10-17T15:28:07.649Z,5.61
2022-10-17T15:33:09.713Z,7.04
2022-10-17T15:38:17.927Z,9.25
2022-10-17T15:43:20.242Z,11.15
2022-10-17T15:48:29.325Z,12.68
2022-10-17T15:53:31.308Z,13.64
2022-10-17T15:58:40.422Z,14.77
2022-10-17T16:03:42.614Z,16.01
2022-10-17T16:08:49.237Z,17.84
2022-10-17T16:13:53.531Z,18.50
2022-10-17T16:18:55.745Z,19.49
2022-10-17T16:23:57.760Z,20.45
2022-10-17T16:29:02.848Z,22.11
2022-10-17T16:34:06.556Z,23.30
2022-10-17T16:39:08.950Z,24.01
2022-10-17T16:44:14.772Z,24.91
2022-10-17T16:49:18.204Z,25.65
2022-10-17T16:54:20.069Z,26.39
2022-10-17T16:59:22.151Z,26.77
2022-10-17T17:04:24.344Z,27.58
2022-10-17T17:09:26.755Z,28.41
2022-10-17T17:14:28.761Z,28.72
2022-10-17T17:19:30.809Z,29.51
2022-10-17T17:24:39.141Z,29.23
2022-10-17T17:29:58.711Z,29.53
2022-10-17T17:35:06.062Z,30.53
2022-10-17T17:40:08.452Z,30.95
2022-10-17T17:45:10.866Z,31.79
2022-10-17T17:50:13.479Z,33.47
2022-10-17T17:55:15.687Z,33.34
2022-10-17T18:00:17.720Z,33.24
2022-10-17T18:05:19.701Z,33.30
2022-10-17T18:10:22.052Z,33.23
2022-10-17T18:15:24.248Z,33.75
2022-10-17T18:20:27.746Z,34.59
2022-10-17T18:25:29.608Z,34.52
2022-10-17T18:30:34.477Z,34.84
2022-10-17T18:35:36.569Z,34.07
2022-10-17T18:40:38.575Z,34.16
2022-10-17T18:45:40.563Z,34.07
2022-10-17T18:50:42.801Z,34.82
2022-10-17T19:00:52.071Z,35.76
2022-10-17T19:05:56.667Z,35.73
2022-10-17T19:11:37.613Z,35.40
2022-10-17T19:16:48.804Z,35.21
2022-10-17T19:21:57.347Z,34.87
2022-10-17T19:27:02.679Z,35.16
2022-10-17T19:32:12.106Z,35.53
2022-10-17T19:37:18.111Z,36.43
2022-10-17T19:42:20.296Z,37.56
2022-10-17T19:47:22.257Z,38.61
2022-10-17T19:52:24.454Z,39.08
2022-10-17T19:57:26.501Z,39.82
2022-10-17T20:02:28.837Z,41.63
2022-10-17T20:07:31.056Z,42.15
2022-10-17T20:12:33.680Z,42.48
2022-10-17T20:17:35.739Z,42.96
2022-10-17T20:22:37.765Z,44.03
2022-10-17T20:27:40.022Z,44.07
2022-10-17T20:32:42.173Z,44.57
2022-10-17T20:37:44.154Z,44.74
2022-10-17T20:42:46.238Z,46.47
2022-10-17T20:47:52.451Z,46.60
2022-10-17T20:53:06.321Z,47.61
2022-10-17T20:58:16.673Z,47.07
2022-10-17T21:03:18.726Z,47.74
2022-10-17T21:08:20.742Z,48.44
2022-10-17T21:13:22.989Z,48.63
2022-10-17T21:18:25.131Z,49.15
2022-10-17T21:23:28.129Z,49.30
2022-10-17T21:28:31.165Z,50.11
2022-10-17T21:33:33.361Z,51.14
2022-10-17T21:38:37.649Z,50.85
2022-10-17T21:43:46.613Z,51.68
2022-10-17T21:48:49.508Z,51.34
2022-10-17T21:53:53.388Z,51.45
2022-10-17T21:58:55.860Z,50.69
2022-10-17T22:03:59.745Z,50.77
2022-10-17T22:09:02.483Z,50.85
2022-10-17T22:14:07.688Z,50.85
2022-10-17T22:19:11.336Z,51.30
2022-10-17T22:24:14.959Z,51.04
2022-10-17T22:29:17.139Z,51.08
2022-10-17T22:34:19.557Z,51.69
2022-10-17T22:39:21.433Z,51.94
2022-10-17T22:44:25.431Z,51.64
2022-10-17T22:49:27.315Z,56.47
2022-10-17T22:54:29.237Z,55.04
2022-10-17T22:59:31.196Z,52.90
2022-10-17T23:04:33.744Z,51.33
2022-10-17T23:09:35.634Z,52.34
2022-10-17T23:14:37.973Z,50.12
2022-10-17T23:19:40.084Z,56.42
2022-10-17T23:24:42.022Z,58.34
2022-10-17T23:29:43.897Z,59.60
2022-10-17T23:34:45.861Z,59.16
2022-10-17T23:39:47.917Z,57.55
2022-10-17T23:44:49.893Z,56.56
2022-10-17T23:49:52.009Z,56.44
2022-10-17T23:54:54.205Z,56.79
2022-10-17T23:59:56.117Z,57.11
